createdAt,value
2024-02-03T00:00:22.082Z,47.30
2024-02-03T00:01:22.012Z,47.51
2024-02-03T00:02:22.071Z,48.02
2024-02-03T00:03:22.003Z,47.09
2024-02-03T00:04:22.028Z,48.13
2024-02-03T00:05:21.953Z,47.84
2024-02-03T00:06:21.992Z,48.35
2024-02-03T00:07:22.168Z,48.56
2024-02-03T00:08:21.984Z,48.46
2024-02-03T00:09:22.033Z,48.56
2024-02-03T00:10:21.959Z,48.56
2024-02-03T00:11:23.935Z,49.27
2024-02-03T00:12:22.061Z,48.97
2024-02-03T00:13:21.927Z,48.66
2024-02-03T00:14:21.871Z,48.46
2024-02-03T00:15:21.928Z,48.66
2024-02-03T00:16:21.949Z,48.56
2024-02-03T00:17:21.950Z,48.56
2024-02-03T00:18:22.045Z,48.66
2024-02-03T00:19:22.010Z,47.53
2024-02-03T00:20:21.820Z,47.94
2024-02-03T00:21:21.951Z,48.35
2024-02-03T00:22:21.922Z,48.46
2024-02-03T00:23:21.823Z,47.94
2024-02-03T00:24:21.865Z,48.35
2024-02-03T00:25:21.772Z,47.84
2024-02-03T00:26:21.762Z,47.74
2024-02-03T00:27:21.909Z,48.46
2024-02-03T00:28:21.734Z,47.42
2024-02-03T00:29:21.761Z,47.94
2024-02-03T00:30:21.777Z,48.02
2024-02-03T00:31:21.738Z,47.71
2024-02-03T00:32:21.903Z,47.92
2024-02-03T00:33:21.928Z,47.71
2024-02-03T00:34:21.856Z,48.13
2024-02-03T00:35:21.710Z,47.71
2024-02-03T00:36:21.758Z,47.74
2024-02-03T00:37:21.992Z,47.53
2024-02-03T00:38:21.659Z,47.74
2024-02-03T00:39:21.770Z,47.84
2024-02-03T00:40:21.626Z,47.74
2024-02-03T00:41:21.698Z,47.53
2024-02-03T00:42:21.816Z,48.46
2024-02-03T00:43:21.609Z,48.04
2024-02-03T00:44:21.629Z,48.46
2024-02-03T00:45:21.681Z,48.66
2024-02-03T00:46:21.648Z,48.66
2024-02-03T00:47:21.732Z,47.94
2024-02-03T00:48:21.719Z,48.46
2024-02-03T00:49:21.699Z,49.17
2024-02-03T00:50:21.568Z,48.86
2024-02-03T00:51:21.569Z,49.38
2024-02-03T00:52:21.636Z,49.07
2024-02-03T00:53:21.482Z,49.07
2024-02-03T00:54:21.554Z,48.14
2024-02-03T00:55:21.482Z,48.35
2024-02-03T00:56:21.491Z,47.84
2024-02-03T00:57:21.594Z,48.35
2024-02-03T00:58:21.488Z,48.66
2024-02-03T00:59:21.490Z,48.47
2024-02-03T01:00:21.477Z,48.58
2024-02-03T01:01:21.489Z,49.19
2024-02-03T01:02:21.541Z,48.79
2024-02-03T01:03:21.475Z,48.68
2024-02-03T01:04:21.528Z,48.47
2024-02-03T01:05:21.445Z,47.76
2024-02-03T01:06:21.423Z,48.17
2024-02-03T01:07:21.485Z,48.58
2024-02-03T01:08:21.330Z,48.68
2024-02-03T01:09:21.584Z,48.47
2024-02-03T01:10:21.411Z,48.17
2024-02-03T01:11:21.394Z,48.38
2024-02-03T01:12:21.507Z,48.47
2024-02-03T01:13:21.320Z,47.96
2024-02-03T01:14:21.343Z,47.66
2024-02-03T01:15:21.381Z,48.07
2024-02-03T01:16:21.345Z,47.96
2024-02-03T01:17:21.348Z,47.76
2024-02-03T01:18:21.513Z,48.17
2024-02-03T01:19:21.331Z,48.68
2024-02-03T01:20:21.303Z,48.27
2024-02-03T01:21:21.320Z,48.60
2024-02-03T01:22:21.292Z,48.19
2024-02-03T01:23:21.266Z,47.88
2024-02-03T01:24:21.278Z,47.99
2024-02-03T01:25:21.249Z,48.50
2024-02-03T01:26:21.189Z,47.88
2024-02-03T01:27:21.571Z,47.99
2024-02-03T01:28:21.218Z,47.88
2024-02-03T01:29:21.180Z,48.29
2024-02-03T01:30:21.212Z,48.50
2024-02-03T01:31:21.202Z,48.39
2024-02-03T01:32:21.249Z,48.29
2024-02-03T01:33:21.236Z,48.29
2024-02-03T01:34:21.191Z,48.60
2024-02-03T01:35:21.152Z,48.19
2024-02-03T01:36:21.198Z,48.81
2024-02-03T01:37:21.157Z,49.01
2024-02-03T01:38:21.104Z,48.72
2024-02-03T01:39:21.177Z,48.72
2024-02-03T01:40:21.119Z,48.83
2024-02-03T01:41:21.004Z,48.83
2024-02-03T01:42:21.204Z,48.93
2024-02-03T01:43:21.112Z,49.44
2024-02-03T01:44:21.288Z,48.63
2024-02-03T01:45:21.227Z,49.44
2024-02-03T01:46:21.016Z,49.35
2024-02-03T01:47:21.215Z,49.04
2024-02-03T01:48:21.191Z,49.35
2024-02-03T01:49:21.124Z,49.65
2024-02-03T01:50:21.004Z,49.76
2024-02-03T01:51:21.102Z,49.96
2024-02-03T01:52:21.089Z,50.06
2024-02-03T01:53:20.949Z,50.16
2024-02-03T01:54:20.997Z,50.70
2024-02-03T01:55:20.960Z,50.70
2024-02-03T01:56:20.943Z,50.60
2024-02-03T01:57:21.009Z,50.91
2024-02-03T01:58:20.937Z,50.81
2024-02-03T01:59:20.907Z,50.60
2024-02-03T02:00:20.899Z,51.22
2024-02-03T02:01:21.093Z,51.12
2024-02-03T02:02:20.959Z,51.04
2024-02-03T02:03:21.023Z,51.24
2024-02-03T02:04:20.973Z,51.24
2024-02-03T02:05:20.835Z,51.55
2024-02-03T02:06:21.132Z,51.55
2024-02-03T02:07:20.961Z,51.86
2024-02-03T02:08:20.878Z,52.17
2024-02-03T02:09:20.820Z,51.76
2024-02-03T02:10:20.804Z,52.37
2024-02-03T02:11:20.796Z,51.55
2024-02-03T02:12:20.895Z,51.89
2024-02-03T02:13:20.838Z,52.29
2024-02-03T02:14:20.745Z,52.06
2024-02-03T02:15:20.910Z,52.29
2024-02-03T02:16:20.679Z,52.40
2024-02-03T02:17:20.818Z,52.29
2024-02-03T02:18:20.886Z,52.19
2024-02-03T02:19:20.914Z,51.98
2024-02-03T02:20:20.728Z,52.40
2024-02-03T02:21:20.716Z,52.40
2024-02-03T02:22:20.648Z,52.61
2024-02-03T02:23:20.624Z,52.29
2024-02-03T02:24:20.673Z,52.50
2024-02-03T02:25:20.654Z,52.19
2024-02-03T02:26:20.734Z,52.29
2024-02-03T02:27:20.758Z,52.50
2024-02-03T02:28:20.549Z,52.73
2024-02-03T02:29:20.676Z,52.11
2024-02-03T02:30:20.701Z,52.73
2024-02-03T02:31:20.704Z,52.53
2024-02-03T02:32:20.636Z,52.53
2024-02-03T02:33:20.767Z,52.42
2024-02-03T02:34:20.821Z,52.53
2024-02-03T02:35:20.616Z,52.53
2024-02-03T02:36:20.695Z,52.63
2024-02-03T02:37:20.603Z,52.53
2024-02-03T02:38:20.558Z,52.73
2024-02-03T02:39:20.806Z,52.63
2024-02-03T02:40:20.499Z,52.83
2024-02-03T02:41:20.581Z,52.83
2024-02-03T02:42:20.523Z,52.73
2024-02-03T02:43:20.570Z,53.14
2024-02-03T02:44:20.530Z,53.14
2024-02-03T02:45:20.502Z,52.83
2024-02-03T02:46:20.582Z,53.56
2024-02-03T02:47:20.485Z,53.35
2024-02-03T02:48:20.656Z,53.86
2024-02-03T02:49:20.531Z,54.20
2024-02-03T02:50:20.455Z,54.41
2024-02-03T02:51:20.532Z,54.51
2024-02-03T02:52:20.430Z,54.10
2024-02-03T02:53:20.338Z,54.20
2024-02-03T02:54:20.387Z,54.41
2024-02-03T02:55:20.398Z,54.41
2024-02-03T02:56:20.470Z,54.64
2024-02-03T02:57:20.352Z,54.53
2024-02-03T02:58:20.340Z,54.94
2024-02-03T02:59:20.454Z,54.84
2024-02-03T03:00:20.363Z,54.94
2024-02-03T03:01:20.572Z,54.43
2024-02-03T03:02:20.293Z,54.74
2024-02-03T03:03:20.479Z,55.05
2024-02-03T03:04:20.599Z,54.97
2024-02-03T03:05:20.267Z,55.07
2024-02-03T03:06:20.369Z,55.38
2024-02-03T03:07:20.310Z,55.38
2024-02-03T03:08:20.309Z,55.59
2024-02-03T03:09:20.380Z,55.59
2024-02-03T03:10:20.268Z,55.80
2024-02-03T03:11:20.328Z,55.59
2024-02-03T03:12:20.248Z,55.90
2024-02-03T03:13:20.242Z,56.34
2024-02-03T03:14:20.246Z,56.34
2024-02-03T03:15:20.279Z,56.34
2024-02-03T03:16:20.249Z,56.54
2024-02-03T03:17:20.163Z,56.54
2024-02-03T03:18:20.433Z,56.75
2024-02-03T03:19:20.274Z,56.96
2024-02-03T03:20:20.184Z,57.09
2024-02-03T03:21:20.280Z,57.29
2024-02-03T03:22:20.174Z,57.09
2024-02-03T03:23:20.178Z,57.29
2024-02-03T03:24:20.095Z,57.29
2024-02-03T03:25:20.133Z,57.19
2024-02-03T03:26:20.172Z,57.60
2024-02-03T03:27:20.218Z,57.53
2024-02-03T03:28:20.086Z,57.63
2024-02-03T03:29:20.148Z,57.42
2024-02-03T03:30:20.117Z,57.53
2024-02-03T03:31:20.168Z,57.63
2024-02-03T03:32:20.089Z,57.32
2024-02-03T03:33:20.120Z,57.73
2024-02-03T03:34:20.211Z,57.42
2024-02-03T03:35:20.000Z,57.11
2024-02-03T03:36:20.160Z,56.90
2024-02-03T03:37:19.999Z,57.11
2024-02-03T03:38:19.968Z,56.70
2024-02-03T03:39:20.042Z,56.60
2024-02-03T03:40:19.993Z,56.29
2024-02-03T03:41:20.075Z,55.85
2024-02-03T03:42:19.994Z,55.85
2024-02-03T03:43:19.910Z,56.16
2024-02-03T03:44:19.973Z,55.85
2024-02-03T03:45:19.913Z,55.95
2024-02-03T03:46:19.983Z,55.64
2024-02-03T03:47:19.917Z,55.54
2024-02-03T03:48:20.255Z,55.64
2024-02-03T03:49:20.020Z,55.43
2024-02-03T03:50:19.921Z,55.43
2024-02-03T03:51:19.979Z,55.43
2024-02-03T03:52:19.875Z,55.23
2024-02-03T03:53:19.831Z,54.92
2024-02-03T03:54:19.908Z,55.00
2024-02-03T03:55:19.842Z,54.90
2024-02-03T03:56:19.906Z,54.79
2024-02-03T03:57:19.883Z,54.90
2024-02-03T03:58:19.750Z,54.69
2024-02-03T03:59:19.793Z,54.79
2024-02-03T04:00:19.808Z,54.69
2024-02-03T04:01:19.883Z,54.48
2024-02-03T04:02:19.742Z,54.48
2024-02-03T04:03:19.695Z,54.27
2024-02-03T04:04:19.784Z,54.17
2024-02-03T04:05:19.744Z,53.96
2024-02-03T04:06:19.915Z,53.96
2024-02-03T04:07:19.741Z,53.76
2024-02-03T04:08:19.679Z,53.45
2024-02-03T04:09:19.711Z,53.22
2024-02-03T04:10:19.588Z,53.11
2024-02-03T04:11:19.724Z,52.81
2024-02-03T04:12:19.662Z,52.91
2024-02-03T04:13:19.660Z,52.60
2024-02-03T04:14:19.675Z,52.81
2024-02-03T04:15:19.763Z,51.98
2024-02-03T04:16:19.658Z,52.19
2024-02-03T04:17:19.676Z,52.08
2024-02-03T04:18:19.787Z,51.78
2024-02-03T04:19:19.681Z,51.44
2024-02-03T04:20:19.730Z,51.23
2024-02-03T04:21:19.730Z,51.65
2024-02-03T04:22:19.613Z,51.34
2024-02-03T04:23:19.574Z,51.34
2024-02-03T04:24:19.585Z,51.23
2024-02-03T04:25:19.602Z,51.65
2024-02-03T04:26:19.609Z,51.54
2024-02-03T04:27:19.534Z,51.65
2024-02-03T04:28:19.476Z,52.16
2024-02-03T04:29:19.531Z,51.54
2024-02-03T04:30:23.102Z,51.75
2024-02-03T04:31:19.568Z,51.54
2024-02-03T04:32:19.517Z,51.54
2024-02-03T04:33:19.617Z,51.23
2024-02-03T04:34:19.766Z,51.34
2024-02-03T04:35:19.445Z,51.23
2024-02-03T04:36:19.620Z,51.23
2024-02-03T04:37:19.424Z,51.23
2024-02-03T04:38:19.396Z,51.03
2024-02-03T04:39:19.493Z,50.82
2024-02-03T04:40:19.435Z,51.03
2024-02-03T04:41:19.439Z,51.13
2024-02-03T04:42:19.434Z,51.44
2024-02-03T04:43:19.398Z,51.75
2024-02-03T04:44:19.323Z,51.54
2024-02-03T04:45:19.449Z,51.95
2024-02-03T04:46:19.408Z,51.95
2024-02-03T04:47:19.325Z,52.06
2024-02-03T04:48:19.408Z,52.06
2024-02-03T04:49:19.461Z,52.19
2024-02-03T04:50:19.323Z,52.19
2024-02-03T04:51:19.472Z,51.98
2024-02-03T04:52:19.343Z,52.19
2024-02-03T04:53:19.278Z,52.29
2024-02-03T04:54:19.277Z,52.60
2024-02-03T04:55:19.245Z,52.60
2024-02-03T04:56:19.321Z,53.22
2024-02-03T04:57:19.248Z,52.70
2024-02-03T04:58:19.219Z,52.37
2024-02-03T04:59:19.242Z,52.68
2024-02-03T05:00:19.372Z,52.78
2024-02-03T05:01:19.293Z,52.16
2024-02-03T05:02:19.176Z,52.16
2024-02-03T05:03:19.351Z,52.06
2024-02-03T05:04:19.263Z,51.95
2024-02-03T05:05:19.169Z,51.75
2024-02-03T05:06:19.397Z,52.47
2024-02-03T05:07:19.147Z,52.88
2024-02-03T05:08:19.111Z,52.37
2024-02-03T05:09:19.129Z,52.68
2024-02-03T05:10:19.112Z,52.06
2024-02-03T05:11:19.223Z,51.95
2024-02-03T05:12:19.108Z,51.75
2024-02-03T05:13:19.055Z,52.58
2024-02-03T05:14:19.113Z,52.16
2024-02-03T05:15:19.142Z,52.16
2024-02-03T05:16:19.164Z,52.16
2024-02-03T05:17:19.120Z,52.26
2024-02-03T05:18:19.225Z,52.26
2024-02-03T05:19:19.089Z,52.16
2024-02-03T05:20:18.992Z,52.16
2024-02-03T05:21:19.220Z,52.47
2024-02-03T05:22:18.984Z,52.16
2024-02-03T05:23:19.085Z,52.26
2024-02-03T05:24:19.003Z,52.06
2024-02-03T05:25:18.973Z,51.98
2024-02-03T05:26:19.191Z,52.29
2024-02-03T05:27:19.012Z,52.29
2024-02-03T05:28:18.973Z,52.60
2024-02-03T05:29:18.977Z,52.91
2024-02-03T05:30:18.982Z,52.81
2024-02-03T05:31:19.062Z,53.42
2024-02-03T05:32:18.906Z,53.53
2024-02-03T05:33:19.175Z,53.83
2024-02-03T05:34:18.929Z,54.14
2024-02-03T05:35:18.913Z,55.07
2024-02-03T05:36:19.062Z,55.28
2024-02-03T05:37:18.853Z,56.31
2024-02-03T05:38:18.871Z,57.34
2024-02-03T05:39:19.045Z,57.65
2024-02-03T05:40:18.961Z,57.96
2024-02-03T05:41:18.907Z,58.37
2024-02-03T05:42:21.405Z,58.79
2024-02-03T05:43:18.806Z,59.51
2024-02-03T05:44:18.779Z,60.23
2024-02-03T05:45:18.972Z,60.75
2024-02-03T05:46:18.881Z,61.26
2024-02-03T05:47:18.745Z,61.47
2024-02-03T05:48:18.990Z,61.88
2024-02-03T05:49:18.821Z,61.75
2024-02-03T05:50:18.761Z,62.06
2024-02-03T05:51:18.955Z,61.96
2024-02-03T05:52:18.714Z,61.75
2024-02-03T05:53:18.722Z,61.96
2024-02-03T05:54:18.809Z,61.96
2024-02-03T05:55:18.753Z,61.13
2024-02-03T05:56:18.647Z,61.33
2024-02-03T05:57:18.785Z,61.03
2024-02-03T05:58:18.684Z,61.13
2024-02-03T05:59:30.226Z,61.13
2024-02-03T06:00:18.806Z,61.03
2024-02-03T06:01:18.689Z,61.54
2024-02-03T06:02:18.643Z,61.85
2024-02-03T06:03:18.675Z,62.26
2024-02-03T06:04:18.736Z,62.37
2024-02-03T06:05:18.633Z,62.57
2024-02-03T06:06:23.146Z,62.88
2024-02-03T06:07:19.089Z,62.88
2024-02-03T06:08:18.667Z,62.99
2024-02-03T06:09:18.522Z,63.19
2024-02-03T06:10:18.546Z,63.19
2024-02-03T06:11:18.619Z,63.50
2024-02-03T06:12:18.639Z,63.40
2024-02-03T06:13:18.655Z,63.60
2024-02-03T06:14:18.487Z,63.43
2024-02-03T06:15:18.567Z,63.53
2024-02-03T06:16:18.545Z,63.64
2024-02-03T06:17:18.423Z,63.43
2024-02-03T06:18:18.668Z,63.32
2024-02-03T06:19:18.657Z,63.64
2024-02-03T06:20:18.513Z,63.53
2024-02-03T06:21:18.681Z,63.43
2024-02-03T06:22:18.457Z,63.32
2024-02-03T06:23:18.372Z,63.22
2024-02-03T06:24:18.469Z,63.22
2024-02-03T06:25:18.396Z,63.01
2024-02-03T06:26:18.453Z,62.92
2024-02-03T06:27:18.341Z,63.01
2024-02-03T06:28:18.370Z,63.32
2024-02-03T06:29:18.301Z,63.22
2024-02-03T06:30:18.395Z,63.22
2024-02-03T06:31:18.368Z,63.43
2024-02-03T06:32:18.269Z,63.53
2024-02-03T06:33:18.489Z,63.53
2024-02-03T06:34:18.329Z,63.74
2024-02-03T06:35:18.228Z,63.53
2024-02-03T06:36:18.453Z,63.74
2024-02-03T06:37:18.264Z,63.64
2024-02-03T06:38:18.242Z,63.74
2024-02-03T06:39:18.400Z,63.53
2024-02-03T06:40:18.287Z,63.95
2024-02-03T06:41:18.259Z,63.84
2024-02-03T06:42:18.429Z,63.95
2024-02-03T06:43:18.208Z,63.84
2024-02-03T06:44:18.196Z,64.36
2024-02-03T06:45:18.204Z,64.25
2024-02-03T06:46:18.313Z,64.25
2024-02-03T06:47:18.189Z,64.25
2024-02-03T06:48:18.433Z,64.25
2024-02-03T06:49:18.179Z,64.36
2024-02-03T06:50:18.124Z,64.46
2024-02-03T06:51:18.189Z,64.36
2024-02-03T06:52:18.138Z,64.67
2024-02-03T06:53:18.111Z,64.56
2024-02-03T06:54:18.139Z,64.77
2024-02-03T06:55:18.094Z,65.08
2024-02-03T06:56:18.148Z,64.77
2024-02-03T06:57:18.269Z,64.87
2024-02-03T06:58:18.075Z,64.87
2024-02-03T06:59:18.037Z,64.98
2024-02-03T07:00:18.087Z,64.74
2024-02-03T07:01:18.268Z,64.84
2024-02-03T07:02:17.998Z,64.64
2024-02-03T07:03:18.053Z,65.05
2024-02-03T07:04:18.118Z,64.64
2024-02-03T07:05:18.005Z,64.84
2024-02-03T07:06:18.208Z,64.53
2024-02-03T07:07:18.058Z,64.64
2024-02-03T07:08:18.066Z,64.64
2024-02-03T07:09:18.006Z,64.64
2024-02-03T07:10:17.998Z,64.53
2024-02-03T07:11:17.972Z,64.43
2024-02-03T07:12:17.951Z,64.32
2024-02-03T07:13:17.893Z,64.43
2024-02-03T07:14:17.922Z,64.53
2024-02-03T07:15:17.908Z,64.22
2024-02-03T07:16:17.825Z,64.29
2024-02-03T07:17:17.886Z,63.78
2024-02-03T07:18:18.135Z,64.09
2024-02-03T07:19:17.978Z,63.99
2024-02-03T07:20:17.928Z,64.09
2024-02-03T07:21:18.039Z,64.09
2024-02-03T07:22:17.763Z,63.99
2024-02-03T07:23:17.887Z,63.78
2024-02-03T07:24:17.947Z,63.78
2024-02-03T07:25:17.906Z,63.99
2024-02-03T07:26:18.003Z,63.57
2024-02-03T07:27:17.809Z,63.47
2024-02-03T07:28:17.856Z,63.78
2024-02-03T07:29:17.783Z,63.99
2024-02-03T07:30:17.844Z,63.89
2024-02-03T07:31:17.961Z,63.68
2024-02-03T07:32:17.737Z,63.89
2024-02-03T07:33:18.005Z,63.78
2024-02-03T07:34:17.818Z,63.68
2024-02-03T07:35:17.943Z,63.78
2024-02-03T07:36:18.112Z,63.99
2024-02-03T07:37:17.860Z,64.09
2024-02-03T07:38:17.763Z,63.89
2024-02-03T07:39:17.607Z,63.75
2024-02-03T07:40:17.697Z,63.75
2024-02-03T07:41:17.734Z,63.75
2024-02-03T07:42:17.699Z,63.75
2024-02-03T07:43:19.860Z,63.75
2024-02-03T07:44:17.663Z,63.34
2024-02-03T07:45:17.677Z,63.54
2024-02-03T07:46:17.746Z,63.54
2024-02-03T07:47:17.569Z,63.34
2024-02-03T07:48:17.764Z,63.34
2024-02-03T07:49:17.615Z,63.45
2024-02-03T07:50:17.577Z,64.06
2024-02-03T07:51:17.669Z,63.75
2024-02-03T07:52:17.562Z,63.85
2024-02-03T07:53:17.562Z,64.06
2024-02-03T07:54:17.551Z,63.96
2024-02-03T07:55:17.548Z,63.75
2024-02-03T07:56:17.603Z,63.54
2024-02-03T07:57:17.489Z,63.54
2024-02-03T07:58:17.575Z,63.54
2024-02-03T07:59:17.486Z,63.65
2024-02-03T08:00:17.520Z,63.65
2024-02-03T08:01:17.615Z,63.34
2024-02-03T08:02:17.462Z,63.82
2024-02-03T08:03:17.481Z,63.65
2024-02-03T08:04:17.564Z,63.21
2024-02-03T08:05:17.548Z,63.31
2024-02-03T08:06:17.571Z,63.31
2024-02-03T08:07:17.395Z,63.21
2024-02-03T08:08:17.434Z,63.42
2024-02-03T08:09:17.422Z,62.70
2024-02-03T08:10:17.364Z,62.59
2024-02-03T08:11:17.458Z,62.59
2024-02-03T08:12:17.408Z,62.59
2024-02-03T08:13:17.334Z,62.18
2024-02-03T08:14:17.301Z,62.18
2024-02-03T08:15:17.392Z,61.15
2024-02-03T08:16:17.406Z,60.71
2024-02-03T08:17:17.333Z,61.12
2024-02-03T08:18:17.424Z,61.22
2024-02-03T08:19:17.402Z,61.22
2024-02-03T08:20:17.241Z,60.09
2024-02-03T08:21:17.398Z,59.99
2024-02-03T08:22:17.229Z,60.61
2024-02-03T08:23:17.236Z,60.30
2024-02-03T08:24:17.187Z,60.09
2024-02-03T08:25:17.163Z,60.37
2024-02-03T08:26:17.291Z,59.65
2024-02-03T08:27:17.240Z,59.24
2024-02-03T08:28:17.211Z,59.34
2024-02-03T08:29:17.106Z,59.55
2024-02-03T08:30:17.215Z,59.01
2024-02-03T08:31:17.252Z,58.59
2024-02-03T08:32:17.141Z,57.98
2024-02-03T08:33:17.396Z,57.98
2024-02-03T08:34:17.360Z,58.18
2024-02-03T08:35:19.093Z,58.50
2024-02-03T08:36:17.392Z,57.57
2024-02-03T08:37:17.033Z,57.88
2024-02-03T08:38:17.188Z,57.67
2024-02-03T08:40:17.116Z,57.03
2024-02-03T08:41:17.165Z,57.03
2024-02-03T08:42:17.220Z,57.54
2024-02-03T08:43:17.054Z,57.13
2024-02-03T08:44:17.079Z,56.79
2024-02-03T08:45:17.076Z,56.79
2024-02-03T08:46:17.135Z,56.28
2024-02-03T08:47:17.014Z,56.08
2024-02-03T08:48:17.249Z,56.67
2024-02-03T08:49:17.101Z,56.56
2024-02-03T08:50:17.024Z,55.95
2024-02-03T08:51:17.114Z,55.95
2024-02-03T08:52:17.014Z,55.95
2024-02-03T08:53:17.013Z,56.67
2024-02-03T08:54:16.979Z,56.26
2024-02-03T08:55:17.009Z,56.05
2024-02-03T08:56:17.029Z,56.26
2024-02-03T08:57:17.020Z,56.15
2024-02-03T08:58:16.985Z,56.05
2024-02-03T08:59:16.943Z,56.05
2024-02-03T09:00:17.003Z,56.26
2024-02-03T09:01:17.135Z,56.02
2024-02-03T09:02:16.868Z,56.13
2024-02-03T09:03:16.885Z,56.74
2024-02-03T09:04:16.924Z,56.43
2024-02-03T09:05:16.903Z,56.02
2024-02-03T09:06:16.986Z,56.10
2024-02-03T09:07:16.881Z,56.00
2024-02-03T09:08:16.814Z,57.03
2024-02-03T09:09:16.867Z,56.90
2024-02-03T09:10:16.816Z,56.26
2024-02-03T09:11:17.003Z,54.31
2024-02-03T09:12:16.838Z,52.91
2024-02-03T09:13:16.870Z,51.32
2024-02-03T09:14:16.827Z,50.15
2024-02-03T09:15:16.854Z,49.40
2024-02-03T09:16:16.909Z,49.24
2024-02-03T09:17:16.769Z,49.95
2024-02-03T09:18:16.960Z,50.41
2024-02-03T09:19:16.941Z,51.57
2024-02-03T09:20:16.767Z,52.72
2024-02-03T09:21:19.769Z,53.57
2024-02-03T09:22:16.689Z,53.67
2024-02-03T09:23:16.666Z,54.69
2024-02-03T09:24:16.888Z,54.72
2024-02-03T09:25:16.717Z,55.02
2024-02-03T09:26:16.811Z,54.39
2024-02-03T09:27:16.737Z,54.08
2024-02-03T09:28:16.677Z,54.21
2024-02-03T09:29:16.659Z,53.67
2024-02-03T09:30:16.633Z,54.08
2024-02-03T09:31:16.684Z,54.18
2024-02-03T09:32:16.623Z,54.26
2024-02-03T09:33:16.697Z,54.97
2024-02-03T09:34:16.669Z,54.39
2024-02-03T09:35:16.581Z,54.80
2024-02-03T09:36:16.762Z,55.51
2024-02-03T09:38:16.555Z,54.87
2024-02-03T09:39:16.593Z,54.97
2024-02-03T09:40:16.526Z,55.18
2024-02-03T09:41:16.602Z,55.08
2024-02-03T09:42:16.528Z,54.95
2024-02-03T09:43:16.515Z,54.85
2024-02-03T09:44:16.538Z,55.69
2024-02-03T09:45:16.560Z,56.40
2024-02-03T09:46:16.600Z,56.40
2024-02-03T09:47:16.450Z,56.30
2024-02-03T09:48:16.532Z,55.99
2024-02-03T09:49:16.633Z,56.10
2024-02-03T09:50:16.424Z,56.30
2024-02-03T09:51:16.605Z,55.10
2024-02-03T09:52:16.436Z,50.75
2024-02-03T09:53:16.430Z,48.42
2024-02-03T09:54:16.638Z,47.79
2024-02-03T09:55:16.409Z,44.87
2024-02-03T09:56:16.472Z,43.29
2024-02-03T09:57:16.448Z,42.03
2024-02-03T09:58:16.366Z,41.91
2024-02-03T09:59:16.325Z,41.28
2024-02-03T10:00:16.327Z,41.42
2024-02-03T10:01:16.649Z,41.52
2024-02-03T10:02:16.358Z,41.61
2024-02-03T10:03:16.413Z,41.30
2024-02-03T10:04:16.418Z,41.83
2024-02-03T10:05:16.362Z,41.83
2024-02-03T10:06:16.500Z,41.83
2024-02-03T10:07:16.274Z,41.93
2024-02-03T10:08:16.304Z,41.79
2024-02-03T10:09:16.352Z,40.56
2024-02-03T10:11:16.371Z,40.23
2024-02-03T10:12:17.790Z,39.73
2024-02-03T10:13:16.228Z,39.33
2024-02-03T10:14:16.256Z,39.95
2024-02-03T10:15:16.223Z,40.48
2024-02-03T10:16:16.273Z,41.00
2024-02-03T10:17:16.166Z,41.52
2024-02-03T10:18:16.336Z,41.81
2024-02-03T10:19:16.440Z,41.08
2024-02-03T10:20:16.328Z,40.66
2024-02-03T10:21:16.310Z,39.41
2024-02-03T10:22:16.164Z,39.72
2024-02-03T10:23:16.248Z,39.31
2024-02-03T10:24:16.178Z,39.23
2024-02-03T10:25:18.038Z,38.91
2024-02-03T10:26:16.105Z,37.98
2024-02-03T10:27:16.166Z,38.69
2024-02-03T10:28:16.071Z,38.25
2024-02-03T10:29:16.055Z,37.01
2024-02-03T10:30:16.201Z,35.86
2024-02-03T10:31:16.272Z,35.33
2024-02-03T10:32:16.100Z,34.41
2024-02-03T10:33:16.152Z,33.89
2024-02-03T10:34:16.155Z,33.89
2024-02-03T10:35:16.046Z,34.51
2024-02-03T10:36:16.194Z,34.19
2024-02-03T10:37:16.125Z,34.29
2024-02-03T10:38:16.021Z,33.98
2024-02-03T10:39:16.061Z,33.01
2024-02-03T10:40:16.015Z,31.26
2024-02-03T10:41:16.131Z,30.87
2024-02-03T10:42:15.958Z,30.63
2024-02-03T10:43:15.975Z,30.11
2024-02-03T10:44:16.055Z,29.13
2024-02-03T10:45:15.966Z,28.81
2024-02-03T10:46:16.003Z,29.00
2024-02-03T10:47:15.910Z,30.65
2024-02-03T10:48:17.509Z,30.65
2024-02-03T10:49:16.025Z,30.15
2024-02-03T10:50:15.870Z,30.66
2024-02-03T10:51:16.107Z,31.11
2024-02-03T10:52:15.907Z,31.96
2024-02-03T10:53:15.903Z,32.56
2024-02-03T10:54:15.911Z,33.47
2024-02-03T10:55:15.907Z,33.47
2024-02-03T10:56:15.870Z,32.53
2024-02-03T10:57:15.795Z,32.34
2024-02-03T10:58:15.786Z,32.53
2024-02-03T10:59:15.826Z,32.54
2024-02-03T11:00:15.774Z,33.06
2024-02-03T11:01:15.957Z,33.17
2024-02-03T11:02:15.805Z,34.21
2024-02-03T11:03:15.821Z,34.83
2024-02-03T11:04:15.872Z,35.55
2024-02-03T11:05:15.918Z,36.07
2024-02-03T11:06:15.874Z,36.30
2024-02-03T11:07:15.736Z,36.84
2024-02-03T11:08:15.791Z,37.98
2024-02-03T11:09:15.769Z,38.18
2024-02-03T11:10:15.701Z,37.07
2024-02-03T11:11:15.748Z,38.28
2024-02-03T11:12:15.768Z,38.28
2024-02-03T11:13:15.659Z,38.25
2024-02-03T11:14:15.760Z,36.49
2024-02-03T11:15:15.701Z,35.73
2024-02-03T11:16:15.735Z,34.26
2024-02-03T11:17:15.650Z,33.01
2024-02-03T11:18:15.859Z,31.57
2024-02-03T11:19:15.648Z,30.83
2024-02-03T11:20:15.672Z,30.31
2024-02-03T11:21:15.714Z,28.77
2024-02-03T11:22:15.617Z,27.75
2024-02-03T11:23:15.607Z,26.92
2024-02-03T11:24:15.590Z,26.92
2024-02-03T11:25:15.537Z,26.80
2024-02-03T11:26:15.638Z,25.98
2024-02-03T11:27:15.556Z,25.46
2024-02-03T11:28:15.553Z,24.84
2024-02-03T11:29:15.527Z,24.44
2024-02-03T11:30:15.565Z,24.33
2024-02-03T11:31:15.615Z,24.46
2024-02-03T11:32:15.597Z,24.46
2024-02-03T11:33:15.647Z,24.66
2024-02-03T11:34:15.657Z,24.16
2024-02-03T11:35:15.478Z,24.44
2024-02-03T11:36:15.713Z,24.45
2024-02-03T11:37:15.684Z,24.56
2024-02-03T11:38:15.450Z,24.36
2024-02-03T11:39:15.440Z,24.25
2024-02-03T11:40:15.413Z,24.15
2024-02-03T11:41:15.454Z,24.35
2024-02-03T11:42:15.407Z,24.22
2024-02-03T11:43:15.521Z,23.82
2024-02-03T11:44:15.391Z,23.52
2024-02-03T11:45:15.475Z,23.43
2024-02-03T11:46:15.440Z,23.32
2024-02-03T11:47:15.375Z,22.91
2024-02-03T11:48:15.422Z,23.00
2024-02-03T11:49:15.453Z,22.80
2024-02-03T11:50:15.362Z,22.38
2024-02-03T11:51:15.380Z,22.59
2024-02-03T11:52:15.302Z,22.19
2024-02-03T11:53:15.281Z,22.60
2024-02-03T11:54:15.323Z,22.50
2024-02-03T11:55:15.319Z,22.12
2024-02-03T11:56:15.337Z,22.41
2024-02-03T11:57:15.276Z,22.31
2024-02-03T11:58:15.231Z,22.51
2024-02-03T11:59:15.241Z,22.52
2024-02-03T12:00:15.252Z,22.52
2024-02-03T12:01:15.324Z,22.91
2024-02-03T12:02:15.185Z,22.51
2024-02-03T12:03:15.313Z,22.01
2024-02-03T12:04:15.214Z,22.09
2024-02-03T12:05:15.214Z,22.49
2024-02-03T12:06:15.294Z,22.19
2024-02-03T12:07:15.291Z,22.27
2024-02-03T12:08:15.200Z,21.39
2024-02-03T12:09:15.213Z,21.88
2024-02-03T12:10:15.184Z,21.29
2024-02-03T12:11:15.191Z,21.39
2024-02-03T12:12:15.123Z,21.59
2024-02-03T12:13:15.110Z,21.59
2024-02-03T12:14:15.145Z,22.01
2024-02-03T12:15:15.109Z,21.71
2024-02-03T12:16:15.179Z,22.34
2024-02-03T12:17:15.080Z,22.81
2024-02-03T12:18:15.185Z,22.20
2024-02-03T12:19:15.387Z,21.91
2024-02-03T12:20:15.074Z,22.19
2024-02-03T12:21:15.143Z,21.68
2024-02-03T12:22:15.162Z,21.89
2024-02-03T12:23:19.687Z,21.89
2024-02-03T12:24:15.016Z,22.41
2024-02-03T12:25:15.020Z,21.71
2024-02-03T12:26:15.064Z,21.71
2024-02-03T12:27:14.989Z,21.72
2024-02-03T12:28:15.050Z,21.72
2024-02-03T12:29:14.987Z,21.73
2024-02-03T12:30:14.955Z,22.34
2024-02-03T12:31:15.026Z,22.45
2024-02-03T12:32:14.912Z,22.53
2024-02-03T12:33:15.055Z,22.84
2024-02-03T12:34:15.161Z,23.14
2024-02-03T12:35:14.945Z,23.33
2024-02-03T12:36:14.940Z,23.16
2024-02-03T12:37:14.858Z,23.97
2024-02-03T12:38:14.894Z,24.10
2024-02-03T12:39:14.895Z,25.72
2024-02-03T12:40:14.878Z,26.27
2024-02-03T12:41:14.950Z,27.40
2024-02-03T12:42:14.851Z,28.45
2024-02-03T12:43:14.853Z,29.90
2024-02-03T12:44:14.845Z,30.94
2024-02-03T12:45:14.852Z,32.37
2024-02-03T12:46:14.863Z,33.40
2024-02-03T12:47:14.817Z,34.34
2024-02-03T12:48:14.888Z,34.47
2024-02-03T12:49:14.961Z,36.00
2024-02-03T12:50:14.945Z,36.44
2024-02-03T12:51:14.953Z,37.36
2024-02-03T12:52:15.852Z,37.38
2024-02-03T12:53:14.764Z,38.39
2024-02-03T12:54:14.735Z,37.80
2024-02-03T12:55:14.768Z,38.20